Time;durP1;ratioP1;P1;durP2;ratioP2;P2;SDS_P1;SDS_P2;PMS_P1;PMS_P2;Temp;Humidity;BMP_temperature;BMP_pressure;BME280_temperature;BME280_humidity;BME280_pressure;Samples;Min_cycle;Max_cycle;Signal;HPM_P1;HPM_P2
2022/07/06 00:01:21;;;;;;;0.00;0.00;;;;;;;19.34;61.92;102385.19;7359299;19;20540;-62
2022/07/06 00:03:47;;;;;;;0.00;0.00;;;;;;;19.31;62.16;102387.94;7355387;19;20019;-62
2022/07/06 00:06:12;;;;;;;0.05;0.05;;;;;;;19.28;62.52;102385.38;7351160;19;20010;-62
2022/07/06 00:08:39;;;;;;;0.00;0.00;;;;;;;19.28;62.61;102388.03;7347288;19;20034;-62
2022/07/06 00:11:05;;;;;;;0.10;0.10;;;;;;;19.27;62.46;102394.25;7348104;19;20006;-62
2022/07/06 00:13:30;;;;;;;0.00;0.00;;;;;;;19.25;63.11;102387.25;7350218;19;20097;-62
2022/07/06 00:15:56;;;;;;;0.00;0.00;;;;;;;19.24;63.26;102385.53;7345195;19;20101;-62
2022/07/06 00:18:22;;;;;;;0.00;0.00;;;;;;;19.24;62.80;102396.13;7348448;19;20010;-62
2022/07/06 00:20:47;;;;;;;0.05;0.05;;;;;;;19.22;63.49;102388.22;7346127;19;20086;-62
2022/07/06 00:23:13;;;;;;;0.00;0.00;;;;;;;19.14;63.24;102380.50;7348836;19;20030;-62
2022/07/06 00:25:38;;;;;;;0.00;0.00;;;;;;;19.20;63.53;102390.03;7357446;19;20821;-62
2022/07/06 00:28:04;;;;;;;0.00;0.00;;;;;;;19.16;63.90;102391.09;7363302;19;20632;-62
2022/07/06 00:30:30;;;;;;;0.00;0.00;;;;;;;19.13;63.89;102385.88;7364186;19;20033;-62
2022/07/06 00:32:55;;;;;;;0.00;0.00;;;;;;;19.09;63.99;102392.16;7359775;19;20006;-62
2022/07/06 00:35:21;;;;;;;0.00;0.00;;;;;;;18.97;64.28;102385.50;7357483;19;20025;-62
2022/07/06 00:37:46;;;;;;;0.00;0.00;;;;;;;19.03;64.59;102393.22;7358266;19;20041;-61
2022/07/06 00:40:12;;;;;;;0.00;0.00;;;;;;;18.91;64.71;102368.00;7354146;19;20945;-62
2022/07/06 00:42:42;;;;;;;0.00;0.00;;;;;;;19.01;64.28;102378.28;7349792;19;20014;-62
2022/07/06 00:45:08;;;;;;;0.00;0.00;;;;;;;18.97;64.63;102371.38;7351759;19;20466;-62
2022/07/06 00:47:34;;;;;;;0.08;0.08;;;;;;;18.92;65.01;102367.09;7353004;19;20010;-62
2022/07/06 00:50:15;;;;;;;0.00;0.00;;;;;;;18.89;64.79;102359.22;7354761;19;20034;-62
2022/07/06 00:52:42;;;;;;;0.00;0.00;;;;;;;18.87;64.81;102353.13;7358259;19;20022;-63
2022/07/06 00:55:09;;;;;;;0.00;0.00;;;;;;;18.85;65.36;102357.59;7360315;19;20913;-62
2022/07/06 00:57:35;;;;;;;0.10;0.10;;;;;;;18.77;64.95;102362.28;7362425;19;20900;-62
2022/07/06 01:00:03;;;;;;;0.00;0.00;;;;;;;18.73;65.22;102357.97;7363459;19;20027;-61
2022/07/06 01:02:32;;;;;;;0.00;0.00;;;;;;;18.79;65.03;102365.72;7361294;19;20106;-62
2022/07/06 01:04:58;;;;;;;0.00;0.00;;;;;;;18.75;65.54;102361.44;7360627;19;20025;-62
2022/07/06 01:07:24;;;;;;;0.00;0.00;;;;;;;18.71;65.40;102353.66;7360194;19;20018;-62
2022/07/06 01:09:50;;;;;;;0.00;0.00;;;;;;;18.71;65.21;102370.41;7362127;19;20030;-62
2022/07/06 01:12:16;;;;;;;0.00;0.00;;;;;;;18.69;65.42;102382.78;7360496;19;20742;-61
2022/07/06 01:14:42;;;;;;;0.03;0.03;;;;;;;18.65;65.43;102370.53;7370224;19;20037;-61
2022/07/06 01:17:08;;;;;;;0.10;0.10;;;;;;;18.61;65.47;102368.91;7366024;19;20078;-62
2022/07/06 01:19:34;;;;;;;0.00;0.00;;;;;;;18.63;65.75;102361.78;7360561;19;20022;-62
2022/07/06 01:21:59;;;;;;;0.00;0.00;;;;;;;18.63;65.35;102365.28;7357446;19;20029;-62
2022/07/06 01:24:25;;;;;;;0.00;0.00;;;;;;;18.63;65.14;102359.13;7367155;19;20026;-62
2022/07/06 01:26:51;;;;;;;0.00;0.00;;;;;;;18.62;65.73;102365.34;7360280;19;20082;-62
2022/07/06 01:29:16;;;;;;;0.03;0.03;;;;;;;18.56;65.45;102347.00;7362238;19;20041;-62
2022/07/06 01:31:50;;;;;;;0.00;0.00;;;;;;;18.62;64.52;102354.75;7357230;19;20033;-62
2022/07/06 01:34:17;;;;;;;0.00;0.00;;;;;;;18.57;65.10;102346.97;7361583;19;20043;-62
2022/07/06 01:36:42;;;;;;;0.00;0.00;;;;;;;18.55;65.26;102358.47;7360187;19;20030;-62
2022/07/06 01:39:08;;;;;;;0.00;0.00;;;;;;;18.52;65.63;102353.31;7360160;19;20070;-62
2022/07/06 01:41:34;;;;;;;0.03;0.03;;;;;;;18.47;65.60;102349.94;7359561;19;21016;-62
2022/07/06 01:44:00;;;;;;;0.10;0.10;;;;;;;18.47;65.57;102342.84;7361469;19;20018;-62
2022/07/06 01:46:25;;;;;;;0.05;0.05;;;;;;;18.47;65.54;102342.00;7363840;19;20042;-62
2022/07/06 01:48:51;;;;;;;0.00;0.00;;;;;;;18.45;65.61;102341.16;7363480;19;20022;-62
2022/07/06 01:51:16;;;;;;;0.00;0.00;;;;;;;18.42;65.98;102332.41;7361932;19;20002;-62
2022/07/06 01:53:42;;;;;;;0.00;0.00;;;;;;;18.41;65.62;102328.03;7360873;19;20091;-62
2022/07/06 01:56:08;;;;;;;0.00;0.00;;;;;;;18.41;65.79;102314.81;7362552;19;20010;-62
2022/07/06 01:58:33;;;;;;;0.00;0.00;;;;;;;18.34;66.02;102302.66;7349811;19;20017;-62
2022/07/06 02:01:00;;;;;;;0.00;0.00;;;;;;;18.40;66.03;102313.09;7363600;19;20026;-62
2022/07/06 02:03:26;;;;;;;0.00;0.00;;;;;;;18.38;65.99;102314.88;7360423;19;20011;-62
2022/07/06 02:05:51;;;;;;;0.10;0.10;;;;;;;18.38;65.75;102314.88;7360262;19;20002;-61
2022/07/06 02:08:17;;;;;;;0.00;0.00;;;;;;;18.37;65.85;102312.28;7362391;19;20023;-62
2022/07/06 02:10:42;;;;;;;0.10;0.10;;;;;;;18.34;65.87;102318.53;7362813;19;20041;-61
2022/07/06 02:13:08;;;;;;;0.00;0.00;;;;;;;18.28;66.00;102307.28;7361697;19;20002;-62
2022/07/06 02:15:33;;;;;;;0.00;0.00;;;;;;;18.33;66.30;102326.50;7363324;19;20011;-62
2022/07/06 02:17:58;;;;;;;0.00;0.00;;;;;;;18.30;66.31;102311.63;7360977;19;20006;-62
2022/07/06 02:20:24;;;;;;;0.00;0.00;;;;;;;18.31;65.94;102313.34;7363279;19;20330;-62
2022/07/06 02:22:49;;;;;;;0.00;0.00;;;;;;;18.32;66.07;102315.06;7362204;19;20014;-62
2022/07/06 02:25:15;;;;;;;0.00;0.00;;;;;;;18.30;66.15;102301.03;7364591;19;20779;-62
2022/07/06 02:27:40;;;;;;;0.05;0.05;;;;;;;18.32;65.89;102309.78;7364475;19;20015;-62
2022/07/06 02:30:06;;;;;;;0.00;0.00;;;;;;;18.32;65.82;102308.91;7362506;19;20126;-62
2022/07/06 02:32:32;;;;;;;0.00;0.00;;;;;;;18.25;65.89;102296.78;7363314;19;20029;-61
2022/07/06 02:34:58;;;;;;;0.00;0.00;;;;;;;18.31;65.96;102310.69;7363311;19;20696;-62
2022/07/06 02:37:24;;;;;;;0.10;0.10;;;;;;;18.30;65.78;102306.34;7363732;19;20026;-62
2022/07/06 02:39:49;;;;;;;0.00;0.00;;;;;;;18.30;65.92;102306.34;7364635;19;20106;-62
2022/07/06 02:42:15;;;;;;;0.00;0.00;;;;;;;18.29;65.75;102312.50;7361899;19;20015;-61
2022/07/06 02:44:40;;;;;;;0.10;0.10;;;;;;;18.26;65.77;102315.25;7354670;19;20031;-62
2022/07/06 02:47:06;;;;;;;0.00;0.00;;;;;;;18.26;65.66;102320.53;7361527;19;20018;-62
2022/07/06 02:49:31;;;;;;;0.00;0.00;;;;;;;18.26;65.89;102317.03;7363142;19;20403;-62
2022/07/06 02:51:56;;;;;;;0.00;0.00;;;;;;;18.24;65.97;102311.78;7360319;19;20446;-62
2022/07/06 02:54:22;;;;;;;0.00;0.00;;;;;;;18.21;66.10;102306.59;7363984;19;20085;-62
2022/07/06 02:56:52;;;;;;;0.00;0.00;;;;;;;18.22;65.89;102318.91;7360873;19;20038;-62
2022/07/06 02:59:17;;;;;;;0.00;0.00;;;;;;;18.22;65.78;102315.38;7363436;19;20014;-62
2022/07/06 03:01:43;;;;;;;0.00;0.00;;;;;;;18.18;65.70;102304.03;7357835;19;20020;-62
2022/07/06 03:04:08;;;;;;;0.00;0.00;;;;;;;18.20;65.47;102309.25;7351433;19;20131;-62
2022/07/06 03:06:33;;;;;;;0.00;0.00;;;;;;;18.20;65.78;102312.81;7362178;19;20665;-62
2022/07/06 03:09:00;;;;;;;0.00;0.00;;;;;;;18.19;66.01;102302.25;7362635;19;20018;-62
2022/07/06 03:11:25;;;;;;;0.00;0.00;;;;;;;18.18;65.80;102305.81;7364738;19;20010;-62
2022/07/06 03:13:51;;;;;;;0.00;0.00;;;;;;;18.20;65.65;102314.53;7362040;19;20018;-62
2022/07/06 03:16:16;;;;;;;0.00;0.00;;;;;;;18.18;65.81;102317.25;7363871;19;20017;-62
2022/07/06 03:18:42;;;;;;;0.00;0.00;;;;;;;18.17;65.66;102319.94;7360791;19;20069;-62
2022/07/06 03:21:07;;;;;;;0.00;0.00;;;;;;;18.17;65.34;102315.50;7358733;19;20010;-63
2022/07/06 03:23:33;;;;;;;0.00;0.00;;;;;;;18.17;65.58;102327.88;7362519;19;20030;-61
2022/07/06 03:25:58;;;;;;;0.00;0.00;;;;;;;18.16;65.82;102334.94;7364196;19;20014;-62
2022/07/06 03:28:24;;;;;;;0.00;0.00;;;;;;;18.14;65.40;102327.03;7363622;19;20024;-62
2022/07/06 03:30:49;;;;;;;0.00;0.00;;;;;;;18.13;65.77;102330.59;7363848;19;20446;-62
2022/07/06 03:33:14;;;;;;;0.00;0.00;;;;;;;18.13;65.55;102340.31;7358102;19;20030;-62
2022/07/06 03:35:40;;;;;;;0.00;0.00;;;;;;;18.12;65.80;102343.88;7363947;19;20014;-62
2022/07/06 03:38:05;;;;;;;0.00;0.00;;;;;;;18.13;65.78;102348.25;7359385;19;20022;-62
2022/07/06 03:40:31;;;;;;;0.00;0.00;;;;;;;18.14;66.03;102331.47;7362079;19;20031;-62
2022/07/06 03:42:56;;;;;;;0.00;0.00;;;;;;;18.13;65.93;102325.31;7363226;19;24638;-62
2022/07/06 03:45:21;;;;;;;0.10;0.10;;;;;;;18.13;65.79;102321.78;7362534;19;20019;-62
2022/07/06 03:47:47;;;;;;;0.00;0.00;;;;;;;18.12;65.99;102315.66;7361540;19;20010;-62
2022/07/06 03:50:12;;;;;;;0.05;0.05;;;;;;;18.13;65.37;102314.72;7359850;19;20449;-62
2022/07/06 03:52:39;;;;;;;0.10;0.10;;;;;;;18.13;65.33;102313.88;7363219;19;20323;-62
2022/07/06 03:55:10;;;;;;;0.08;0.08;;;;;;;18.15;65.76;102317.34;7363507;19;20021;-61
2022/07/06 03:57:37;;;;;;;0.00;0.00;;;;;;;18.11;65.30;102321.00;7361912;19;20645;-62
2022/07/06 04:00:04;;;;;;;0.00;0.00;;;;;;;18.10;65.24;102313.97;7364191;19;20022;-62
2022/07/06 04:02:29;;;;;;;0.00;0.00;;;;;;;18.09;65.31;102322.78;7361231;19;20014;-61
2022/07/06 04:04:55;;;;;;;0.00;0.00;;;;;;;18.08;65.39;102331.63;7362147;19;20045;-62
2022/07/06 04:07:20;;;;;;;0.00;0.00;;;;;;;18.05;65.86;102331.75;7363693;19;20706;-62
2022/07/06 04:09:46;;;;;;;0.00;0.00;;;;;;;17.96;65.73;102317.00;7362261;19;20014;-62
2022/07/06 04:12:11;;;;;;;0.00;0.00;;;;;;;18.05;65.45;102337.03;7357284;19;20590;-62
2022/07/06 04:14:37;;;;;;;0.00;0.00;;;;;;;18.06;65.89;102330.81;7363446;19;20014;-62
2022/07/06 04:17:51;;;;;;;0.10;0.10;;;;;;;18.05;65.75;102329.09;7362232;19;20010;-62
2022/07/06 04:19:48;;;;;;;0.00;0.00;;;;;;;18.05;65.61;102327.31;7362691;19;20017;-62
2022/07/06 04:22:13;;;;;;;0.03;0.03;;;;;;;18.03;65.55;102328.25;7361486;19;20006;-62
2022/07/06 04:24:38;;;;;;;0.00;0.00;;;;;;;18.02;65.78;102321.25;7362182;19;20010;-62
2022/07/06 04:27:05;;;;;;;0.00;0.00;;;;;;;18.02;65.52;102321.25;7360506;19;20015;-62
2022/07/06 04:29:30;;;;;;;0.00;0.00;;;;;;;18.00;65.62;102307.22;7369283;19;20014;-62
2022/07/06 04:31:55;;;;;;;0.00;0.00;;;;;;;17.96;65.39;102310.84;7367280;19;20018;-62
2022/07/06 04:34:21;;;;;;;0.00;0.00;;;;;;;17.94;65.45;102321.44;7368057;19;20019;-62
2022/07/06 04:36:46;;;;;;;0.00;0.00;;;;;;;17.93;65.68;102321.50;7367336;19;20010;-62
2022/07/06 04:39:12;;;;;;;0.00;0.00;;;;;;;17.87;65.49;102310.19;7367460;19;20363;-62
2022/07/06 04:41:37;;;;;;;0.10;0.10;;;;;;;17.89;65.39;102318.94;7365041;19;20049;-62
2022/07/06 04:44:03;;;;;;;0.10;0.10;;;;;;;17.86;65.20;102305.81;7369139;19;20017;-62
2022/07/06 04:46:28;;;;;;;0.00;0.00;;;;;;;17.81;65.89;102296.28;7365660;19;20463;-62
2022/07/06 04:48:54;;;;;;;0.00;0.00;;;;;;;17.91;65.42;102310.09;7369680;19;20037;-62
2022/07/06 04:51:19;;;;;;;0.00;0.00;;;;;;;17.89;65.84;102300.44;7368738;19;20007;-62
2022/07/06 04:53:45;;;;;;;0.00;0.00;;;;;;;17.91;65.50;102307.47;7368362;19;20018;-62
2022/07/06 04:56:11;;;;;;;0.00;0.00;;;;;;;17.89;65.97;102316.31;7368147;19;20018;-61
2022/07/06 04:58:36;;;;;;;0.00;0.00;;;;;;;17.91;65.93;102318.03;7369059;19;20605;-62
2022/07/06 05:01:01;;;;;;;0.00;0.00;;;;;;;17.90;65.90;102306.59;7366500;19;20007;-62
2022/07/06 05:03:27;;;;;;;0.00;0.00;;;;;;;17.91;65.67;102312.75;7368861;19;20816;-62
2022/07/06 05:05:52;;;;;;;0.00;0.00;;;;;;;17.92;65.63;102317.97;7368772;19;20026;-62
2022/07/06 05:08:18;;;;;;;0.00;0.00;;;;;;;17.92;65.46;102314.47;7370271;19;20026;-62
2022/07/06 05:10:43;;;;;;;0.00;0.00;;;;;;;17.91;65.39;102312.75;7366558;19;20923;-62
2022/07/06 05:13:08;;;;;;;0.00;0.00;;;;;;;17.92;65.11;102325.03;7365618;19;22350;-62
2022/07/06 05:15:34;;;;;;;0.05;0.05;;;;;;;17.91;65.17;102328.59;7366589;19;20404;-62
2022/07/06 05:17:59;;;;;;;0.00;0.00;;;;;;;17.91;65.46;102323.31;7368595;19;20014;-62
2022/07/06 05:20:25;;;;;;;0.00;0.00;;;;;;;17.91;65.12;102324.19;7363807;19;20010;-62
2022/07/06 05:22:50;;;;;;;0.10;0.10;;;;;;;17.92;65.39;102325.03;7365945;19;20711;-62
2022/07/06 05:25:15;;;;;;;0.00;0.00;;;;;;;17.91;65.35;102318.03;7366589;19;20018;-63
2022/07/06 05:27:41;;;;;;;0.10;0.10;;;;;;;17.93;65.50;102317.06;7367004;19;20799;-62
2022/07/06 05:30:07;;;;;;;0.03;0.03;;;;;;;17.92;65.74;102314.47;7365148;19;20011;-62
2022/07/06 05:32:32;;;;;;;0.00;0.00;;;;;;;17.86;65.56;102305.81;7361642;19;20018;-62
2022/07/06 05:34:58;;;;;;;0.00;0.00;;;;;;;17.93;65.16;102310.91;7366028;19;20029;-62
2022/07/06 05:37:23;;;;;;;0.00;0.00;;;;;;;17.86;65.44;102297.00;7368358;19;20549;-62
2022/07/06 05:39:50;;;;;;;0.00;0.00;;;;;;;17.90;65.39;102293.38;7366413;19;20035;-62
2022/07/06 05:42:15;;;;;;;0.10;0.10;;;;;;;17.97;65.13;102291.44;7367152;19;20015;-61
2022/07/06 05:44:41;;;;;;;0.00;0.00;;;;;;;17.96;65.20;102311.72;7366050;19;20079;-62
2022/07/06 05:52:34;;;;;;;0.00;0.00;;;;;;;17.95;64.85;102293.25;7366148;19;20039;-63
2022/07/06 05:55:00;;;;;;;0.08;0.08;;;;;;;18.02;64.79;102305.38;7367620;19;20002;-61
2022/07/06 05:57:26;;;;;;;0.00;0.00;;;;;;;18.03;64.92;102312.38;7365830;19;20518;-62
2022/07/06 05:59:51;;;;;;;0.10;0.10;;;;;;;17.98;65.07;102293.16;7354211;19;20006;-62
2022/07/06 06:02:17;;;;;;;0.00;0.00;;;;;;;18.04;65.15;102308.84;7358460;19;20395;-61
2022/07/06 06:04:42;;;;;;;0.00;0.00;;;;;;;18.05;65.24;102310.59;7363079;19;20516;-62
2022/07/06 06:07:08;;;;;;;0.05;0.05;;;;;;;18.06;65.34;102302.59;7365436;19;20025;-62
2022/07/06 06:09:33;;;;;;;0.03;0.03;;;;;;;18.07;64.97;102303.47;7363241;19;20010;-62
2022/07/06 06:11:58;;;;;;;0.03;0.03;;;;;;;18.09;65.37;102309.56;7362691;19;20042;-62
2022/07/06 06:14:24;;;;;;;0.00;0.00;;;;;;;18.07;65.24;102300.81;7358519;19;20735;-61
2022/07/06 06:16:49;;;;;;;0.00;0.00;;;;;;;18.06;65.11;102297.31;7360102;19;20013;-61
2022/07/06 06:19:15;;;;;;;0.00;0.00;;;;;;;18.08;65.22;102295.50;7355497;19;20006;-62
2022/07/06 06:21:40;;;;;;;0.10;0.10;;;;;;;18.15;65.15;102309.41;7356876;19;20033;-62
2022/07/06 06:24:06;;;;;;;0.10;0.10;;;;;;;18.15;65.21;102306.78;7360111;19;20053;-61
2022/07/06 06:26:31;;;;;;;0.00;0.00;;;;;;;18.19;65.00;102307.53;7364027;19;20019;-62
2022/07/06 06:28:56;;;;;;;0.00;0.00;;;;;;;18.20;65.36;102315.44;7358874;19;20006;-62
2022/07/06 06:31:22;;;;;;;0.03;0.03;;;;;;;18.21;65.38;102317.16;7359446;19;20014;-62
2022/07/06 06:33:47;;;;;;;0.00;0.00;;;;;;;18.23;65.11;102314.47;7354817;19;20030;-61
2022/07/06 06:36:13;;;;;;;0.00;0.00;;;;;;;18.25;65.43;102313.53;7359137;19;20361;-62
2022/07/06 06:38:39;;;;;;;0.00;0.00;;;;;;;18.24;65.24;102316.19;7363841;19;20026;-62
2022/07/06 06:41:04;;;;;;;0.10;0.10;;;;;;;18.21;64.88;102300.44;7363846;19;20015;-62
2022/07/06 06:43:30;;;;;;;0.00;0.00;;;;;;;18.33;64.79;102322.09;7365373;19;20026;-62
2022/07/06 06:45:55;;;;;;;0.10;0.10;;;;;;;18.32;65.12;102320.38;7363696;19;20014;-62
2022/07/06 06:48:20;;;;;;;0.00;0.00;;;;;;;18.36;65.38;102329.09;7364413;19;20471;-62
2022/07/06 06:50:46;;;;;;;0.10;0.10;;;;;;;18.39;65.29;102332.47;7356325;19;20014;-62
2022/07/06 06:53:12;;;;;;;0.00;0.00;;;;;;;18.37;65.22;102317.59;7366191;19;20006;-61
2022/07/06 06:55:37;;;;;;;0.00;0.00;;;;;;;18.44;65.20;102334.13;7358100;19;20010;-62
2022/07/06 06:58:03;;;;;;;0.00;0.00;;;;;;;18.44;65.26;102328.84;7365211;19;20366;-61
2022/07/06 07:00:29;;;;;;;0.10;0.10;;;;;;;18.45;65.31;102331.47;7362057;19;20010;-62
2022/07/06 07:02:54;;;;;;;0.00;0.00;;;;;;;18.48;65.33;102331.34;7357055;19;20042;-62
2022/07/06 07:05:20;;;;;;;0.05;0.05;;;;;;;18.50;65.11;102324.25;7361132;19;20017;-62
2022/07/06 07:07:45;;;;;;;0.10;0.10;;;;;;;18.54;64.74;102319.72;7359224;19;20102;-62
2022/07/06 07:10:11;;;;;;;0.10;0.10;;;;;;;18.54;64.93;102317.06;7360854;19;20011;-62
2022/07/06 07:12:45;;;;;;;0.00;0.00;;;;;;;18.64;64.76;102322.03;7359163;19;20024;-62
2022/07/06 07:15:11;;;;;;;0.10;0.10;;;;;;;18.66;64.95;102320.22;7358786;19;20071;-62
2022/07/06 07:17:37;;;;;;;0.00;0.00;;;;;;;18.60;64.71;102303.66;7348714;19;20318;-61
2022/07/06 07:20:03;;;;;;;0.10;0.10;;;;;;;18.75;64.65;102327.03;7362511;19;20010;-62
2022/07/06 07:22:28;;;;;;;0.00;0.00;;;;;;;18.81;64.42;102329.50;7360939;19;20566;-61
2022/07/06 07:24:54;;;;;;;0.00;0.00;;;;;;;18.87;64.40;102329.31;7360967;19;20010;-61
2022/07/06 07:27:19;;;;;;;0.00;0.00;;;;;;;18.85;64.49;102309.94;7359380;19;20027;-61
2022/07/06 07:29:45;;;;;;;0.00;0.00;;;;;;;19.00;63.94;102329.78;7362988;19;20011;-62
2022/07/06 07:32:10;;;;;;;0.10;0.10;;;;;;;19.07;64.11;102331.31;7361473;19;20011;-62
2022/07/06 07:34:36;;;;;;;0.00;0.00;;;;;;;19.07;63.54;102325.16;7362495;19;20014;-61
2022/07/06 07:37:01;;;;;;;0.00;0.00;;;;;;;19.20;63.50;102334.44;7362431;19;20015;-62
2022/07/06 07:39:26;;;;;;;0.10;0.10;;;;;;;19.25;63.23;102335.13;7362957;19;20018;-62
2022/07/06 07:41:52;;;;;;;0.00;0.00;;;;;;;19.30;62.96;102342.94;7362653;19;20936;-62
2022/07/06 07:44:17;;;;;;;0.00;0.00;;;;;;;19.35;62.66;102333.91;7363203;19;20010;-62
2022/07/06 07:46:43;;;;;;;0.10;0.10;;;;;;;19.38;62.62;102336.47;7363751;19;20006;-62
2022/07/06 07:49:08;;;;;;;0.00;0.00;;;;;;;19.40;62.79;102339.94;7363077;19;20082;-62
2022/07/06 07:51:34;;;;;;;0.05;0.05;;;;;;;19.45;62.54;102332.69;7363983;19;20019;-62
2022/07/06 07:53:59;;;;;;;0.00;0.00;;;;;;;19.51;61.94;102341.34;7359778;19;20018;-61
2022/07/06 07:56:24;;;;;;;0.10;0.10;;;;;;;19.57;62.43;102341.16;7361938;19;20019;-61
2022/07/06 07:58:50;;;;;;;0.00;0.00;;;;;;;19.63;62.19;102325.09;7360117;19;20010;-62
2022/07/06 08:01:15;;;;;;;0.00;0.00;;;;;;;19.67;61.96;102321.41;7363679;19;20093;-62
2022/07/06 08:03:40;;;;;;;0.10;0.10;;;;;;;19.77;61.84;102328.13;7366439;19;20010;-62
2022/07/06 08:06:06;;;;;;;0.00;0.00;;;;;;;19.87;61.35;102324.22;7368922;19;20014;-62
2022/07/06 08:08:31;;;;;;;0.10;0.10;;;;;;;19.93;61.58;102329.31;7365853;19;20014;-62
2022/07/06 08:10:57;;;;;;;0.00;0.00;;;;;;;20.03;60.62;102327.19;7366477;19;20481;-62
2022/07/06 08:13:22;;;;;;;0.00;0.00;;;;;;;20.12;60.82;102323.31;7367349;19;20014;-62
2022/07/06 08:15:48;;;;;;;0.00;0.00;;;;;;;20.19;60.33;102314.22;7367875;19;20038;-62
2022/07/06 08:18:13;;;;;;;0.00;0.00;;;;;;;20.24;59.78;102311.41;7369581;19;20018;-62
2022/07/06 08:20:39;;;;;;;0.00;0.00;;;;;;;20.33;60.24;102311.91;7368582;19;20033;-62
2022/07/06 08:23:04;;;;;;;0.10;0.10;;;;;;;20.41;60.16;102303.66;7368729;19;21408;-62
2022/07/06 08:25:30;;;;;;;0.10;0.10;;;;;;;20.46;59.94;102309.66;7367577;19;21049;-62
2022/07/06 08:27:56;;;;;;;0.00;0.00;;;;;;;20.57;60.06;102304.81;7369198;19;20066;-62
2022/07/06 08:30:21;;;;;;;0.10;0.10;;;;;;;20.56;59.29;102286.31;7366237;19;20470;-62
2022/07/06 08:32:47;;;;;;;0.00;0.00;;;;;;;20.76;59.36;102304.09;7369550;19;20082;-62
2022/07/06 08:35:13;;;;;;;0.00;0.00;;;;;;;20.85;58.38;102299.28;7366761;19;20050;-62
2022/07/06 08:37:38;;;;;;;0.00;0.00;;;;;;;20.90;58.34;102302.63;7369329;19;20018;-61
2022/07/06 08:40:05;;;;;;;0.10;0.10;;;;;;;21.03;57.76;102318.03;7365207;19;20015;-62
2022/07/06 08:42:32;;;;;;;0.00;0.00;;;;;;;21.10;57.38;102319.53;7366456;19;20105;-62
2022/07/06 08:45:04;;;;;;;0.00;0.00;;;;;;;21.16;57.71;102311.31;7370209;19;20010;-62
2022/07/06 08:47:31;;;;;;;0.00;0.00;;;;;;;21.15;57.78;102312.25;7367492;19;20027;-62
2022/07/06 08:49:56;;;;;;;0.00;0.00;;;;;;;21.18;57.12;102301.47;7368351;19;20026;-62
2022/07/06 08:52:25;;;;;;;0.10;0.10;;;;;;;21.24;56.94;102306.56;7368015;19;20031;-62
2022/07/06 08:54:51;;;;;;;0.00;0.00;;;;;;;21.20;56.94;102294.31;7370085;19;20015;-62
2022/07/06 08:57:17;;;;;;;0.00;0.00;;;;;;;21.29;56.90;102293.06;7368242;19;20019;-62
2022/07/06 08:59:43;;;;;;;0.00;0.00;;;;;;;21.32;56.84;102288.50;7366623;19;20021;-62
2022/07/06 09:02:13;;;;;;;0.05;0.05;;;;;;;21.20;56.80;102263.31;7362847;19;20015;-62
2022/07/06 09:04:41;;;;;;;0.00;0.00;;;;;;;21.42;56.86;102297.81;7367355;19;20104;-62
2022/07/06 09:07:06;;;;;;;0.00;0.00;;;;;;;21.41;56.22;102279.28;7366235;19;20010;-62
2022/07/06 09:09:33;;;;;;;0.03;0.03;;;;;;;21.54;55.42;102290.25;7368134;19;20040;-62
2022/07/06 09:11:59;;;;;;;0.00;0.00;;;;;;;21.52;55.48;102289.47;7368873;19;20587;-62
2022/07/06 09:14:24;;;;;;;0.10;0.10;;;;;;;21.61;55.97;102299.69;7365467;19;20093;-61
2022/07/06 09:17:03;;;;;;;0.10;0.10;;;;;;;21.70;56.76;102296.66;7365945;19;20078;-62
2022/07/06 09:19:30;;;;;;;0.10;0.10;;;;;;;21.73;55.64;102293.84;7354621;19;20010;-63
2022/07/06 09:21:56;;;;;;;;;;;;;;;21.85;56.78;102309.25;7365366;19;20022;-62
2022/07/06 09:24:21;;;;;;;0.00;0.00;;;;;;;21.82;54.51;102296.09;7365706;19;19925;-62
2022/07/06 09:26:47;;;;;;;0.10;0.10;;;;;;;21.87;54.64;102301.22;7364676;19;20552;-62
2022/07/06 09:29:13;;;;;;;0.00;0.00;;;;;;;21.84;55.27;102283.56;7365529;19;20010;-63
2022/07/06 09:31:39;;;;;;;0.10;0.10;;;;;;;21.86;55.03;102283.53;7365189;19;20101;-61
2022/07/06 09:34:11;;;;;;;0.00;0.00;;;;;;;22.07;55.25;102297.66;7364565;19;20445;-62
2022/07/06 09:36:41;;;;;;;0.10;0.10;;;;;;;22.19;54.53;102299.78;7365435;19;20098;-62
2022/07/06 09:39:15;;;;;;;0.00;0.00;;;;;;;22.40;54.05;102303.22;7361873;19;20587;-62
2022/07/06 09:41:40;;;;;;;0.00;0.00;;;;;;;22.44;53.89;102297.69;7364681;19;20025;-61
2022/07/06 09:44:06;;;;;;;0.00;0.00;;;;;;;22.46;53.27;102269.22;7363959;19;22021;-62
2022/07/06 09:46:41;;;;;;;0.00;0.00;;;;;;;22.67;53.76;102298.41;7364210;19;20507;-62
2022/07/06 09:49:07;;;;;;;0.00;0.00;;;;;;;22.67;53.39;102279.78;7364265;19;20011;-62
2022/07/06 09:51:36;;;;;;;0.10;0.10;;;;;;;22.88;53.23;102297.41;7366357;19;20069;-62
2022/07/06 09:54:06;;;;;;;0.00;0.00;;;;;;;22.99;53.20;102295.06;7365535;19;20010;-63
2022/07/06 09:56:38;;;;;;;0.00;0.00;;;;;;;23.11;53.19;102282.06;7366045;19;20588;-62
2022/07/06 09:59:14;;;;;;;0.10;0.10;;;;;;;23.26;52.92;102286.63;7363130;19;20011;-62
2022/07/06 10:01:41;;;;;;;0.00;0.00;;;;;;;23.34;51.43;102268.44;7364606;19;20007;-62
2022/07/06 10:04:08;;;;;;;0.10;0.10;;;;;;;23.46;52.02;102270.47;7363900;19;20014;-62
2022/07/06 10:06:34;;;;;;;0.00;0.00;;;;;;;23.60;52.43;102266.22;7364573;19;20560;-62
2022/07/06 10:09:00;;;;;;;0.10;0.10;;;;;;;23.81;51.76;102257.97;7362496;19;22525;-61
2022/07/06 10:11:28;;;;;;;0.10;0.10;;;;;;;24.10;50.99;102257.34;7365304;19;20010;-61
2022/07/06 10:13:56;;;;;;;0.08;0.08;;;;;;;24.27;51.02;102252.78;7218682;19;2837891;-62
2022/07/06 10:16:25;;;;;;;0.00;0.00;;;;;;;24.54;50.34;102253.09;7367498;19;20010;-62
2022/07/06 10:18:54;;;;;;;0.10;0.10;;;;;;;24.74;49.47;102264.44;7367730;19;20035;-62
2022/07/06 10:21:22;;;;;;;0.10;0.10;;;;;;;24.96;48.83;102243.53;7367835;19;21164;-61
2022/07/06 10:23:49;;;;;;;0.10;0.10;;;;;;;25.24;47.90;102257.94;7368203;19;20428;-62
2022/07/06 10:26:16;;;;;;;0.00;0.00;;;;;;;25.47;47.11;102260.09;7362720;19;20011;-62
2022/07/06 10:28:42;;;;;;;0.00;0.00;;;;;;;25.59;47.35;102248.66;7364555;19;20014;-62
2022/07/06 10:31:09;;;;;;;0.10;0.10;;;;;;;25.77;47.43;102261.88;7366248;19;20010;-62
2022/07/06 10:33:36;;;;;;;0.03;0.03;;;;;;;25.90;46.28;102251.25;7365073;19;20018;-62
2022/07/06 10:36:02;;;;;;;0.00;0.00;;;;;;;26.08;46.92;102234.91;7366214;19;20374;-62
2022/07/06 10:38:33;;;;;;;0.10;0.10;;;;;;;26.43;46.57;102261.28;7367049;19;20102;-62
2022/07/06 10:41:06;;;;;;;0.08;0.08;;;;;;;26.54;45.74;102285.53;7365485;19;20010;-62
2022/07/06 10:43:42;;;;;;;0.00;0.00;;;;;;;26.51;45.99;102252.72;7366228;19;20045;-62
2022/07/06 10:46:13;;;;;;;0.10;0.10;;;;;;;26.55;45.12;102256.91;7365247;19;20006;-62
2022/07/06 10:48:49;;;;;;;0.00;0.00;;;;;;;26.45;44.87;102253.97;7362468;19;20007;-62
2022/07/06 10:51:25;;;;;;;0.00;0.00;;;;;;;26.46;45.52;102258.41;7366308;19;20014;-62
2022/07/06 10:54:04;;;;;;;0.10;0.10;;;;;;;26.32;44.97;102275.34;7366159;19;20010;-61
2022/07/06 10:56:36;;;;;;;0.00;0.00;;;;;;;26.14;44.99;102277.34;7366370;19;20006;-62
2022/07/06 10:59:09;;;;;;;0.08;0.08;;;;;;;25.88;44.74;102270.09;7364445;19;20003;-62
2022/07/06 11:01:34;;;;;;;0.00;0.00;;;;;;;25.58;44.66;102273.69;7363722;19;20002;-62
2022/07/06 11:04:00;;;;;;;0.10;0.10;;;;;;;25.51;45.01;102288.41;7362857;19;20082;-62
2022/07/06 11:06:26;;;;;;;0.00;0.00;;;;;;;25.33;45.31;102284.13;7363983;19;20577;-62
2022/07/06 11:08:56;;;;;;;0.00;0.00;;;;;;;25.21;46.01;102284.88;7363798;19;20014;-62
2022/07/06 11:11:22;;;;;;;0.10;0.10;;;;;;;24.95;46.62;102273.88;7367409;19;20911;-62
2022/07/06 11:13:50;;;;;;;0.10;0.10;;;;;;;24.82;46.89;102270.19;7363892;19;20078;-62
2022/07/06 11:16:17;;;;;;;0.00;0.00;;;;;;;24.69;47.17;102277.22;7361708;19;20014;-62
2022/07/06 11:18:48;;;;;;;0.10;0.10;;;;;;;24.59;47.58;102272.38;7358500;19;20049;-62
2022/07/06 11:21:31;;;;;;;0.00;0.00;;;;;;;24.45;47.96;102264.28;7360642;19;20457;-62
2022/07/06 11:23:58;;;;;;;0.10;0.10;;;;;;;24.22;48.14;102262.00;7360066;19;20007;-62
2022/07/06 11:26:23;;;;;;;0.07;0.07;;;;;;;24.11;48.83;102269.72;7361387;19;20025;-62